Time;durP1;ratioP1;P1;durP2;ratioP2;P2;SDS_P1;SDS_P2;PMS_P1;PMS_P2;Temp;Humidity;BMP_temperature;BMP_pressure;BME280_temperature;BME280_humidity;BME280_pressure;Samples;Min_cycle;Max_cycle;Signal;HPM_P1;HPM_P2
2023/04/20 00:01:55;;;;;;;8.45;2.08;;;;;;;9.45;44.07;102269.88;5042388;28;20564;-70
2023/04/20 00:04:22;;;;;;;6.53;1.98;;;;;;;9.45;44.11;102269.88;5050856;28;20049;-71
2023/04/20 00:06:50;;;;;;;3.15;1.88;;;;;;;9.40;43.92;102266.72;5029770;28;20049;-70
2023/04/20 00:09:17;;;;;;;4.40;1.70;;;;;;;9.36;44.21;102270.47;5053766;28;20084;-70
2023/04/20 00:11:44;;;;;;;4.95;1.95;;;;;;;9.30;43.94;102260.44;5038833;28;20077;-70
2023/04/20 00:14:11;;;;;;;5.35;2.00;;;;;;;9.24;44.29;102256.44;5047565;28;20076;-71
2023/04/20 00:16:37;;;;;;;8.20;2.20;;;;;;;9.16;44.26;102250.88;5045014;28;20045;-69
2023/04/20 00:19:06;;;;;;;3.92;2.05;;;;;;;9.12;44.73;102248.56;5043086;28;20088;-69
2023/04/20 00:21:33;;;;;;;3.05;2.00;;;;;;;9.06;45.21;102244.56;5052189;28;20079;-69
2023/04/20 00:23:59;;;;;;;4.35;2.00;;;;;;;9.01;45.15;102236.19;5041177;28;20107;-68
2023/04/20 00:26:26;;;;;;;9.00;2.03;;;;;;;8.99;45.51;102225.81;5044920;28;20045;-69
2023/04/20 00:28:53;;;;;;;6.82;2.15;;;;;;;8.93;45.32;102222.78;5023586;28;20049;-70
2023/04/20 00:31:19;;;;;;;6.70;1.80;;;;;;;8.90;45.41;102215.97;5042706;28;20045;-69
2023/04/20 00:33:47;;;;;;;2.97;1.80;;;;;;;8.87;45.53;102205.69;5052472;28;20056;-69
2023/04/20 00:36:14;;;;;;;3.50;1.90;;;;;;;8.80;45.88;102200.03;5041313;28;20116;-69
2023/04/20 00:38:40;;;;;;;5.72;1.90;;;;;;;8.83;45.89;102206.84;5059238;28;20135;-72
2023/04/20 00:41:07;;;;;;;4.45;2.15;;;;;;;8.85;45.67;102197.94;5040542;28;20593;-70
2023/04/20 00:43:33;;;;;;;3.47;2.00;;;;;;;8.75;45.76;102190.81;5042383;28;20059;-70
2023/04/20 00:46:02;;;;;;;3.25;2.00;;;;;;;8.78;46.03;102190.59;5046191;28;20855;-71
2023/04/20 00:48:29;;;;;;;3.40;1.92;;;;;;;8.76;46.12;102177.63;5045991;28;20147;-69
2023/04/20 00:50:55;;;;;;;2.90;1.70;;;;;;;8.79;46.10;102176.59;5035351;28;20471;-69
2023/04/20 00:53:22;;;;;;;3.90;2.00;;;;;;;8.71;45.53;102171.84;5016727;28;20389;-69
2023/04/20 00:55:49;;;;;;;4.28;2.10;;;;;;;8.68;45.75;102166.81;5030996;28;20468;-69
2023/04/20 00:58:16;;;;;;;6.18;2.03;;;;;;;8.64;46.33;102152.25;5041318;28;20049;-69
2023/04/20 01:00:43;;;;;;;4.97;2.42;;;;;;;8.68;46.83;102161.56;5054809;28;20502;-69
2023/04/20 01:03:09;;;;;;;6.38;2.20;;;;;;;8.64;46.88;102160.09;5060954;28;20060;-69
2023/04/20 01:05:37;;;;;;;5.10;1.90;;;;;;;8.66;46.44;102146.00;5050970;28;20162;-69
2023/04/20 01:08:06;;;;;;;3.83;1.98;;;;;;;8.67;46.79;102144.22;5033485;28;20646;-69
2023/04/20 01:10:33;;;;;;;6.03;2.00;;;;;;;8.69;47.03;102134.50;5018845;28;20083;-69
2023/04/20 01:12:59;;;;;;;5.57;2.20;;;;;;;8.71;46.74;102137.84;5031371;28;20053;-69
2023/04/20 01:15:26;;;;;;;7.28;2.00;;;;;;;8.74;47.24;102131.56;5045203;28;20056;-69
2023/04/20 01:17:52;;;;;;;5.05;2.20;;;;;;;8.68;47.49;102128.44;5024397;28;20053;-70
2023/04/20 01:20:22;;;;;;;4.22;2.10;;;;;;;8.73;48.43;102135.97;5047897;28;20507;-69
2023/04/20 01:22:50;;;;;;;5.43;2.63;;;;;;;8.74;48.32;102134.19;5035415;28;20064;-69
2023/04/20 01:25:17;;;;;;;7.28;2.42;;;;;;;8.74;49.33;102128.94;5040891;28;20052;-69
2023/04/20 01:27:43;;;;;;;4.18;2.00;;;;;;;8.77;49.33;102120.91;5042953;28;20072;-68
2023/04/20 01:30:11;;;;;;;5.53;2.15;;;;;;;8.82;49.58;102122.28;5053599;28;20172;-68
2023/04/20 01:32:38;;;;;;;7.03;2.17;;;;;;;8.80;49.82;102111.09;5032527;28;20040;-69
2023/04/20 01:35:07;;;;;;;4.60;2.28;;;;;;;8.86;50.71;102092.34;5017543;28;20057;-69
2023/04/20 01:37:33;;;;;;;3.97;2.35;;;;;;;8.88;50.74;102092.25;5045775;28;20049;-69
2023/04/20 01:40:01;;;;;;;5.45;2.30;;;;;;;8.89;50.58;102094.72;5038431;28;20059;-68
2023/04/20 01:42:28;;;;;;;3.70;2.20;;;;;;;8.89;51.14;102083.44;5045633;28;20045;-68
2023/04/20 01:44:54;;;;;;;5.82;2.55;;;;;;;8.88;51.52;102087.00;5019517;28;20053;-71
2023/04/20 01:47:21;;;;;;;4.32;2.38;;;;;;;8.88;51.21;102085.22;5041057;28;20056;-69
2023/04/20 01:49:48;;;;;;;5.03;2.30;;;;;;;8.88;51.43;102092.25;5041178;28;20136;-71
2023/04/20 01:52:14;;;;;;;3.72;2.40;;;;;;;8.87;51.51;102087.94;5045108;28;20041;-69
2023/04/20 01:54:41;;;;;;;4.20;2.35;;;;;;;8.84;51.40;102070.69;5042832;28;20528;-68
2023/04/20 01:57:07;;;;;;;4.63;2.70;;;;;;;8.78;52.81;102080.72;5037277;28;20048;-69
2023/04/20 01:59:34;;;;;;;5.75;2.40;;;;;;;8.77;53.24;102076.44;5045501;28;20060;-68
2023/04/20 02:02:00;;;;;;;3.80;2.42;;;;;;;8.78;53.26;102071.09;5032101;28;20136;-71
2023/04/20 02:04:27;;;;;;;3.65;2.08;;;;;;;8.73;53.27;102060.09;5027906;28;20053;-69
2023/04/20 02:06:54;;;;;;;3.55;2.50;;;;;;;8.66;53.14;102067.53;5046457;28;20116;-70
2023/04/20 02:09:20;;;;;;;6.55;2.55;;;;;;;8.61;54.19;102066.16;5037046;28;20059;-70
2023/04/20 02:11:47;;;;;;;7.80;2.83;;;;;;;8.51;54.76;102068.56;5042462;28;20135;-69
2023/04/20 02:14:13;;;;;;;5.80;2.45;;;;;;;8.55;54.66;102067.41;5034058;28;20087;-69
2023/04/20 02:16:41;;;;;;;6.30;2.75;;;;;;;8.55;55.08;102056.94;5042053;28;20045;-69
2023/04/20 02:19:08;;;;;;;4.43;2.73;;;;;;;8.58;54.23;102050.66;5039745;28;20052;-71
2023/04/20 02:21:35;;;;;;;4.22;2.40;;;;;;;8.52;54.49;102033.59;5027783;28;20706;-70
2023/04/20 02:24:01;;;;;;;4.63;2.70;;;;;;;8.54;54.79;102039.56;5049384;28;20118;-75
2023/04/20 02:26:28;;;;;;;7.25;3.13;;;;;;;8.59;55.28;102041.91;5039827;28;20044;-75
2023/04/20 02:28:54;;;;;;;3.25;2.40;;;;;;;8.66;55.57;102045.75;5043307;28;20140;-72
2023/04/20 02:31:21;;;;;;;7.18;2.80;;;;;;;8.65;55.70;102036.25;5033371;28;20132;-73
2023/04/20 02:33:48;;;;;;;5.40;2.67;;;;;;;8.67;54.85;102036.97;5048216;28;20041;-75
2023/04/20 02:36:15;;;;;;;5.35;2.45;;;;;;;8.61;55.39;102027.75;5042627;28;20060;-75
2023/04/20 02:38:41;;;;;;;6.20;2.85;;;;;;;8.70;56.74;102026.28;5037386;28;20057;-74
2023/04/20 02:41:08;;;;;;;4.97;2.50;;;;;;;8.70;55.72;102035.00;5050116;28;20087;-74
2023/04/20 02:43:35;;;;;;;10.18;3.33;;;;;;;8.73;56.74;102027.88;5030238;28;20048;-75
2023/04/20 02:46:01;;;;;;;6.47;3.15;;;;;;;8.73;56.54;102026.09;5046392;28;20409;-75
2023/04/20 02:48:28;;;;;;;4.80;2.47;;;;;;;8.73;56.65;102020.84;5039186;28;20549;-74
2023/04/20 02:50:55;;;;;;;3.85;2.50;;;;;;;8.74;56.80;102022.50;5046531;28;20056;-75
2023/04/20 02:53:22;;;;;;;7.15;2.63;;;;;;;8.78;56.59;102007.44;5045849;28;20071;-75
2023/04/20 02:55:48;;;;;;;6.78;2.80;;;;;;;8.81;56.72;102012.50;5026410;28;20045;-74
2023/04/20 02:58:16;;;;;;;3.67;2.20;;;;;;;8.78;56.61;102003.06;4995583;28;20080;-75
2023/04/20 03:00:43;;;;;;;6.90;2.70;;;;;;;8.89;56.79;102008.38;5038565;28;20437;-74
2023/04/20 03:03:09;;;;;;;5.35;2.55;;;;;;;9.00;56.16;102018.13;5046369;28;20725;-74
2023/04/20 03:05:36;;;;;;;4.40;2.58;;;;;;;9.02;56.62;102008.38;5022694;28;20059;-75
2023/04/20 03:08:04;;;;;;;4.93;2.60;;;;;;;9.03;56.87;102012.66;5047568;28;20056;-74
2023/04/20 03:10:31;;;;;;;8.55;2.70;;;;;;;9.02;57.46;102004.94;5041833;28;20378;-74
2023/04/20 03:12:58;;;;;;;5.28;2.80;;;;;;;9.05;56.63;101999.47;5023359;28;20045;-75
2023/04/20 03:15:24;;;;;;;4.57;2.30;;;;;;;9.04;57.38;102000.44;5042244;28;20615;-73
2023/04/20 03:17:51;;;;;;;5.05;2.85;;;;;;;8.97;58.64;101989.53;5021720;28;20118;-73
2023/04/20 03:20:18;;;;;;;5.03;2.70;;;;;;;9.07;58.05;101993.16;5045912;28;20088;-74
2023/04/20 03:22:45;;;;;;;4.00;2.50;;;;;;;9.07;58.11;101969.63;5047192;28;20045;-74
2023/04/20 03:25:11;;;;;;;7.88;3.05;;;;;;;9.01;58.33;101983.13;5034446;28;20055;-73
2023/04/20 03:27:38;;;;;;;7.57;3.58;;;;;;;8.96;58.68;101974.78;5049933;28;20056;-74
2023/04/20 03:30:05;;;;;;;4.78;2.63;;;;;;;9.01;58.02;101970.06;5019440;28;20057;-74
2023/04/20 03:32:32;;;;;;;5.25;2.85;;;;;;;9.05;58.23;101973.28;5046586;28;20045;-74
2023/04/20 03:34:58;;;;;;;5.00;2.67;;;;;;;9.06;58.69;101967.13;5040102;28;20751;-73
2023/04/20 03:37:25;;;;;;;7.97;3.20;;;;;;;9.02;59.00;101965.69;5053289;28;20102;-73
2023/04/20 03:39:51;;;;;;;5.00;2.60;;;;;;;9.07;58.51;101963.56;5042059;28;20061;-75
2023/04/20 03:42:18;;;;;;;6.50;3.75;;;;;;;9.09;58.73;101969.50;5041385;28;20055;-74
2023/04/20 03:44:44;;;;;;;5.25;2.70;;;;;;;9.09;58.16;101969.50;5047535;28;20047;-75
2023/04/20 03:47:11;;;;;;;6.32;2.83;;;;;;;9.09;58.47;101974.75;5038841;28;20059;-72
2023/04/20 03:49:37;;;;;;;6.63;3.15;;;;;;;9.13;58.79;101978.81;5045298;28;20084;-75
2023/04/20 03:52:04;;;;;;;4.78;3.10;;;;;;;9.09;59.27;101978.22;5047817;28;20059;-72
2023/04/20 03:54:31;;;;;;;4.85;2.70;;;;;;;9.10;59.12;101969.41;5022006;28;20135;-72
2023/04/20 03:56:58;;;;;;;5.00;2.58;;;;;;;9.13;58.47;101963.13;5038133;28;20143;-72
2023/04/20 03:59:24;;;;;;;5.35;2.65;;;;;;;9.13;59.37;101962.28;5037121;28;20618;-74
2023/04/20 04:01:51;;;;;;;4.68;2.50;;;;;;;9.18;58.91;101957.56;5045417;28;20065;-72
2023/04/20 04:04:17;;;;;;;4.82;2.47;;;;;;;9.17;59.57;101956.72;5037467;28;20045;-74
2023/04/20 04:06:44;;;;;;;6.75;2.70;;;;;;;9.14;59.99;101953.50;5045456;28;20498;-75
2023/04/20 04:09:11;;;;;;;6.53;2.72;;;;;;;9.14;59.67;101946.47;5043284;28;20603;-73
2023/04/20 04:11:37;;;;;;;5.43;2.90;;;;;;;9.13;59.80;101946.56;5038301;28;20136;-74
2023/04/20 04:14:04;;;;;;;6.80;2.60;;;;;;;9.19;58.96;101938.28;5051529;28;20051;-74
2023/04/20 04:16:31;;;;;;;6.55;2.75;;;;;;;9.17;59.41;101927.91;5023231;28;20536;-75
2023/04/20 04:18:57;;;;;;;5.88;2.95;;;;;;;9.14;59.16;101932.56;5047512;28;20091;-73
2023/04/20 04:21:24;;;;;;;4.68;3.03;;;;;;;9.15;59.97;101927.19;5040590;28;20114;-73
2023/04/20 04:23:50;;;;;;;4.90;2.85;;;;;;;9.12;60.21;101929.22;5042819;28;20143;-73
2023/04/20 04:26:20;;;;;;;10.43;3.03;;;;;;;9.20;59.41;101929.50;5047989;28;20684;-75
2023/04/20 04:28:48;;;;;;;7.60;2.70;;;;;;;9.22;59.93;101922.38;5040835;28;20469;-74
2023/04/20 04:31:16;;;;;;;5.20;2.97;;;;;;;9.22;60.64;101915.34;5049641;28;20055;-74
2023/04/20 04:33:44;;;;;;;6.13;3.00;;;;;;;9.21;60.64;101915.44;5041648;28;20051;-74
2023/04/20 04:36:14;;;;;;;4.93;2.30;;;;;;;9.21;60.09;101913.69;5044709;28;20080;-73
2023/04/20 04:38:43;;;;;;;6.82;2.60;;;;;;;9.17;61.43;101914.81;5038600;28;20041;-73
2023/04/20 04:41:13;;;;;;;4.55;2.38;;;;;;;9.20;60.27;101919.03;5048564;28;20133;-75
2023/04/20 04:43:40;;;;;;;5.40;2.78;;;;;;;9.15;61.26;101913.28;5055430;28;20040;-72
2023/04/20 04:46:12;;;;;;;6.05;3.13;;;;;;;9.15;61.38;101916.72;5045256;28;20077;-73
2023/04/20 04:48:41;;;;;;;5.25;2.63;;;;;;;9.16;61.44;101917.56;5044586;28;20544;-73
2023/04/20 04:51:08;;;;;;;6.40;2.70;;;;;;;9.15;61.25;101921.13;5038345;28;20063;-74
2023/04/20 04:53:35;;;;;;;6.78;3.10;;;;;;;9.13;61.21;101925.63;5035522;28;20049;-74
2023/04/20 04:56:04;;;;;;;7.00;2.55;;;;;;;9.24;59.31;101923.09;5042901;28;20077;-74
2023/04/20 04:58:31;;;;;;;4.57;3.00;;;;;;;9.20;60.97;101919.84;5026818;28;20053;-74
2023/04/20 05:00:57;;;;;;;7.75;3.30;;;;;;;9.25;60.94;101919.50;5048068;28;20159;-75
2023/04/20 05:03:24;;;;;;;4.25;2.65;;;;;;;9.27;60.92;101915.00;5040155;28;20052;-75
2023/04/20 05:05:51;;;;;;;6.25;2.88;;;;;;;9.26;61.14;101921.19;5044318;28;20064;-74
2023/04/20 05:08:17;;;;;;;6.35;2.78;;;;;;;9.25;60.88;101909.91;5037472;28;20508;-75
2023/04/20 05:10:44;;;;;;;4.55;2.90;;;;;;;9.34;61.78;101920.66;5047050;28;20172;-75
2023/04/20 05:13:10;;;;;;;5.35;2.72;;;;;;;9.34;60.60;101911.00;5048112;28;20510;-72
2023/04/20 05:15:37;;;;;;;6.63;2.90;;;;;;;9.38;61.34;101914.22;5040773;28;20136;-75
2023/04/20 05:18:03;;;;;;;6.85;3.13;;;;;;;9.39;61.07;101910.66;5029186;28;20048;-76
2023/04/20 05:20:30;;;;;;;5.93;2.60;;;;;;;9.41;61.15;101914.00;5029329;28;20655;-75
2023/04/20 05:22:57;;;;;;;5.57;2.90;;;;;;;9.40;61.46;101907.94;5043302;28;20099;-75
2023/04/20 05:25:23;;;;;;;6.35;3.25;;;;;;;9.43;61.44;101899.03;5039054;28;20514;-75
2023/04/20 05:27:50;;;;;;;4.25;2.78;;;;;;;9.54;61.05;101912.16;5047685;28;20506;-75
2023/04/20 05:30:17;;;;;;;5.18;2.75;;;;;;;9.58;61.08;101913.59;5041195;28;20131;-75
2023/04/20 05:32:47;;;;;;;7.38;3.20;;;;;;;9.58;61.66;101912.75;5039081;28;20063;-75
2023/04/20 05:35:17;;;;;;;7.32;3.00;;;;;;;9.58;60.92;101916.22;5041380;28;20321;-75
2023/04/20 05:37:44;;;;;;;7.82;3.50;;;;;;;9.61;61.44;101915.19;5037662;28;20505;-73
2023/04/20 05:40:10;;;;;;;8.43;2.70;;;;;;;9.61;62.51;101905.53;5046688;28;20110;-74
2023/04/20 05:42:37;;;;;;;5.68;2.67;;;;;;;9.65;62.06;101898.28;5043912;28;20045;-74
2023/04/20 05:45:05;;;;;;;6.18;2.95;;;;;;;9.67;61.97;101904.25;5048412;28;20553;-75
2023/04/20 05:47:32;;;;;;;6.30;2.80;;;;;;;9.70;62.40;101899.63;5050587;28;20056;-75
2023/04/20 05:49:59;;;;;;;4.82;2.85;;;;;;;9.64;61.52;101899.22;5015889;28;20159;-75
2023/04/20 05:52:25;;;;;;;10.45;3.10;;;;;;;9.73;61.90;101906.41;5046000;28;20053;-74
2023/04/20 05:54:52;;;;;;;8.60;3.60;;;;;;;9.74;61.83;101905.47;5038223;28;20334;-75
2023/04/20 05:57:18;;;;;;;4.70;2.65;;;;;;;9.79;62.24;101899.88;5038259;28;20060;-74
2023/04/20 05:59:45;;;;;;;5.22;2.80;;;;;;;9.86;61.12;101895.84;5042252;28;20405;-74
2023/04/20 06:02:11;;;;;;;6.03;3.97;;;;;;;9.86;62.08;101899.28;5032721;28;20114;-75
2023/04/20 06:04:39;;;;;;;10.02;4.10;;;;;;;9.94;61.57;101901.34;5022293;28;20493;-75
2023/04/20 06:07:05;;;;;;;5.60;3.40;;;;;;;10.01;61.73;101904.31;5040156;28;20078;-75
2023/04/20 06:09:32;;;;;;;7.35;3.17;;;;;;;10.11;61.31;101905.28;5049881;28;20095;-75
2023/04/20 06:11:59;;;;;;;4.15;2.60;;;;;;;10.15;60.70;101905.91;5040500;28;21045;-75
2023/04/20 06:14:26;;;;;;;4.95;2.72;;;;;;;10.16;60.72;101895.28;5023330;28;20041;-74
2023/04/20 06:16:52;;;;;;;4.10;2.72;;;;;;;10.14;61.29;101907.69;5023184;28;20067;-75
2023/04/20 06:19:18;;;;;;;7.72;2.92;;;;;;;10.11;60.97;101889.56;5035134;28;20039;-75
2023/04/20 06:21:45;;;;;;;7.18;2.60;;;;;;;10.10;60.56;101898.38;5044965;28;20045;-73
2023/04/20 06:24:11;;;;;;;6.38;3.05;;;;;;;10.09;61.36;101899.31;5021265;28;20060;-73
2023/04/20 06:26:38;;;;;;;7.72;3.00;;;;;;;10.07;60.59;101898.59;5045414;28;20057;-74
2023/04/20 06:29:04;;;;;;;6.65;2.90;;;;;;;10.12;61.32;101891.25;5037774;28;20068;-74
2023/04/20 06:31:31;;;;;;;6.03;3.33;;;;;;;10.14;61.85;101894.56;5040771;28;20049;-74
2023/04/20 06:33:58;;;;;;;6.13;2.80;;;;;;;10.19;60.64;101892.44;5025272;28;20057;-75
2023/04/20 06:36:24;;;;;;;6.90;3.33;;;;;;;10.14;61.59;101885.88;5039474;28;20063;-74
2023/04/20 06:38:51;;;;;;;5.97;3.17;;;;;;;10.11;60.95;101897.41;5048203;28;20053;-76
2023/04/20 06:41:17;;;;;;;9.68;2.92;;;;;;;10.10;61.19;101901.00;5023767;28;20108;-75
2023/04/20 06:43:45;;;;;;;5.40;3.20;;;;;;;10.16;61.84;101894.47;5058135;28;20401;-74
2023/04/20 06:46:11;;;;;;;5.00;3.00;;;;;;;10.13;61.43;101884.19;5036587;28;20159;-74
2023/04/20 06:48:38;;;;;;;7.13;3.63;;;;;;;10.17;61.22;101891.69;5041267;28;20049;-75
2023/04/20 06:51:04;;;;;;;19.42;3.55;;;;;;;10.23;61.48;101893.88;5037505;28;20068;-73
2023/04/20 06:53:31;;;;;;;5.85;2.97;;;;;;;10.25;61.12;101891.97;5059881;28;20066;-72
2023/04/20 06:55:57;;;;;;;8.80;3.72;;;;;;;10.17;61.44;101891.69;5067396;28;20050;-74
2023/04/20 06:58:24;;;;;;;8.80;3.55;;;;;;;10.12;61.26;101893.88;5023467;28;20041;-73
2023/04/20 07:00:50;;;;;;;5.57;3.25;;;;;;;10.13;61.11;101889.44;5053214;28;20525;-75
2023/04/20 07:03:17;;;;;;;9.50;3.75;;;;;;;10.09;62.45;101889.69;5047973;28;20406;-74
2023/04/20 07:05:44;;;;;;;9.68;3.53;;;;;;;10.23;61.82;101896.50;5040182;28;20056;-73
2023/04/20 07:08:11;;;;;;;6.55;3.40;;;;;;;10.24;62.66;101897.34;5050805;28;20075;-72
2023/04/20 07:10:37;;;;;;;6.63;3.67;;;;;;;10.28;63.31;101894.34;5037270;28;20526;-72
2023/04/20 07:13:04;;;;;;;6.80;3.40;;;;;;;10.36;63.38;101895.59;5040216;28;20052;-74
2023/04/20 07:15:30;;;;;;;8.27;3.63;;;;;;;10.46;62.96;101897.34;5035352;28;20049;-72
2023/04/20 07:17:57;;;;;;;5.82;3.63;;;;;;;10.45;63.24;101895.72;5050876;28;20460;-74
2023/04/20 07:20:23;;;;;;;6.80;3.40;;;;;;;10.48;63.56;101898.06;5049556;28;20049;-74
2023/04/20 07:22:50;;;;;;;9.25;3.63;;;;;;;10.45;63.25;101902.75;5028223;28;20104;-74
2023/04/20 07:25:18;;;;;;;5.57;3.63;;;;;;;10.56;63.13;101888.78;5046196;28;20132;-75
2023/04/20 07:27:44;;;;;;;8.35;4.20;;;;;;;10.54;63.45;101902.00;5037729;28;20063;-74
2023/04/20 07:30:14;;;;;;;5.18;3.97;;;;;;;10.43;63.55;101894.16;5034729;28;20056;-74
2023/04/20 07:32:41;;;;;;;6.70;3.92;;;;;;;10.48;62.48;101895.44;5043851;28;20716;-72
2023/04/20 07:35:08;;;;;;;6.00;4.03;;;;;;;10.48;62.84;101902.50;5040653;28;20096;-75
2023/04/20 07:37:35;;;;;;;7.93;4.15;;;;;;;10.50;63.67;101897.97;5049017;28;20060;-75
2023/04/20 07:40:05;;;;;;;6.55;4.10;;;;;;;10.57;63.02;101890.47;5019589;28;20476;-74
2023/04/20 07:42:34;;;;;;;8.48;4.05;;;;;;;10.59;62.73;101888.56;5037244;28;20041;-75
2023/04/20 07:45:00;;;;;;;7.60;3.90;;;;;;;10.73;62.28;101884.84;5045113;28;20418;-76
2023/04/20 07:47:27;;;;;;;6.95;4.10;;;;;;;10.81;62.69;101885.06;5052317;28;20276;-75
2023/04/20 07:49:54;;;;;;;7.68;4.25;;;;;;;10.94;61.26;101877.88;5045950;28;20452;-75
2023/04/20 07:52:21;;;;;;;6.35;3.92;;;;;;;10.99;61.49;101886.19;5054172;28;20052;-74
2023/04/20 07:54:48;;;;;;;8.43;4.60;;;;;;;11.12;62.48;101872.94;5029872;28;20067;-75
2023/04/20 07:57:15;;;;;;;6.72;4.40;;;;;;;11.11;61.34;101866.00;5022979;28;20049;-76
2023/04/20 07:59:44;;;;;;;5.82;4.00;;;;;;;11.15;61.50;101867.41;5050164;28;20053;-75
2023/04/20 08:02:11;;;;;;;8.68;4.07;;;;;;;11.25;61.32;101873.63;5042151;28;20527;-74
2023/04/20 08:04:38;;;;;;;7.00;4.45;;;;;;;11.27;61.80;101861.19;5048456;28;20048;-75
2023/04/20 08:07:05;;;;;;;6.22;4.43;;;;;;;11.33;61.39;101875.63;5046438;28;20063;-73
2023/04/20 08:09:31;;;;;;;6.82;4.40;;;;;;;11.38;61.43;101872.59;5026258;28;20052;-75
2023/04/20 08:11:59;;;;;;;6.82;4.10;;;;;;;11.37;61.31;101866.53;5049149;28;20061;-74
2023/04/20 08:14:25;;;;;;;7.93;4.78;;;;;;;11.44;61.15;101883.44;5041355;28;20053;-75
2023/04/20 08:16:52;;;;;;;6.78;4.63;;;;;;;11.49;61.09;101880.44;5030528;28;20053;-75
2023/04/20 08:19:18;;;;;;;7.20;4.30;;;;;;;11.53;61.00;101866.09;5038811;28;20519;-76
2023/04/20 08:21:45;;;;;;;7.65;4.40;;;;;;;11.53;60.88;101868.72;5030346;28;20052;-75
2023/04/20 08:24:12;;;;;;;8.85;4.40;;;;;;;11.66;60.44;101866.75;5039082;28;20057;-74
2023/04/20 08:26:39;;;;;;;8.15;4.25;;;;;;;11.65;60.46;101867.69;5041549;28;20041;-76
2023/04/20 08:29:06;;;;;;;7.22;4.60;;;;;;;11.64;60.70;101855.53;5046347;28;20049;-75
2023/04/20 08:31:32;;;;;;;10.70;4.45;;;;;;;11.73;59.79;101858.34;5023611;28;20555;-75
2023/04/20 08:33:59;;;;;;;5.78;4.22;;;;;;;11.74;60.00;101857.38;5053015;28;20417;-76
2023/04/20 08:36:26;;;;;;;7.03;4.88;;;;;;;11.78;61.00;101853.50;5012626;28;20150;-74
2023/04/20 08:39:13;;;;;;;8.85;4.35;;;;;;;11.76;61.05;101858.06;5045541;28;20055;-76
2023/04/20 08:41:40;;;;;;;7.82;4.05;;;;;;;11.81;60.79;101859.34;5045956;28;20084;-76
2023/04/20 08:44:07;;;;;;;7.55;4.45;;;;;;;11.84;61.08;101858.28;5059051;28;20049;-75
2023/04/20 08:46:34;;;;;;;7.60;4.22;;;;;;;11.68;59.76;101853.44;5057294;28;20117;-76
2023/04/20 08:49:03;;;;;;;7.45;4.78;;;;;;;11.66;60.04;101858.00;5030533;28;20057;-77
2023/04/20 08:51:31;;;;;;;7.15;4.70;;;;;;;11.72;60.14;101860.16;5040206;28;20049;-76
2023/04/20 08:54:04;;;;;;;7.70;4.20;;;;;;;11.69;60.13;101863.00;5041262;28;20045;-77
2023/04/20 08:56:36;;;;;;;7.85;4.35;;;;;;;11.77;60.62;101852.69;5055762;28;20057;-76
2023/04/20 08:59:04;;;;;;;7.07;4.57;;;;;;;11.76;60.43;101858.91;5048971;28;20052;-72
2023/04/20 09:01:31;;;;;;;8.10;4.00;;;;;;;11.81;60.38;101858.53;5039970;28;20465;-73
2023/04/20 09:04:14;;;;;;;5.78;4.15;;;;;;;11.78;60.51;101854.38;5047034;28;20100;-75
2023/04/20 09:06:43;;;;;;;7.13;3.83;;;;;;;11.79;60.95;101847.31;5038903;28;20053;-73
2023/04/20 09:09:10;;;;;;;6.68;4.40;;;;;;;11.73;60.85;101858.34;5052596;28;20131;-75
2023/04/20 09:11:36;;;;;;;7.88;4.22;;;;;;;11.81;60.95;101853.28;5020428;28;20477;-72
2023/04/20 09:14:09;;;;;;;6.50;3.70;;;;;;;11.85;60.80;101860.75;5040520;28;20056;-75
2023/04/20 09:16:38;;;;;;;7.93;4.28;;;;;;;11.76;60.44;101856.28;5036353;28;20046;-73
2023/04/20 09:19:05;;;;;;;12.27;4.90;;;;;;;11.68;60.90;101853.44;5055402;28;20155;-76
2023/04/20 09:21:34;;;;;;;5.50;3.75;;;;;;;11.66;61.19;101850.97;5028863;28;20402;-76
2023/04/20 09:24:07;;;;;;;6.82;4.07;;;;;;;11.65;60.97;101858.97;5043919;28;20666;-75
2023/04/20 09:26:36;;;;;;;7.15;4.18;;;;;;;11.52;60.96;101860.94;5046269;28;20410;-75
2023/04/20 09:29:14;;;;;;;8.63;4.70;;;;;;;11.36;61.74;101864.00;5014985;28;20489;-75
2023/04/20 09:31:41;;;;;;;7.78;4.32;;;;;;;11.40;61.34;101862.81;5047583;28;20394;-74
2023/04/20 09:34:07;;;;;;;7.88;4.82;;;;;;;11.31;62.33;101858.28;5043962;28;20072;-74
2023/04/20 09:36:42;;;;;;;9.55;4.80;;;;;;;11.27;63.52;101866.44;5043076;28;20064;-75
2023/04/20 09:39:15;;;;;;;7.68;4.60;;;;;;;11.27;62.79;101855.94;5047564;28;20103;-75
2023/04/20 09:41:42;;;;;;;6.32;4.60;;;;;;;11.30;63.78;101862.72;5035515;28;20057;-74
2023/04/20 09:44:10;;;;;;;8.27;4.57;;;;;;;11.31;63.24;101855.66;5035689;28;20089;-75
2023/04/20 09:46:41;;;;;;;9.00;4.10;;;;;;;11.25;62.64;101860.47;5036180;28;20122;-75
2023/04/20 09:49:10;;;;;;;5.95;3.88;;;;;;;11.18;62.85;101847.97;5056698;28;20054;-73
2023/04/20 09:51:43;;;;;;;6.47;4.10;;;;;;;11.31;64.06;101850.41;5039728;28;20052;-74
2023/04/20 09:54:12;;;;;;;5.93;3.90;;;;;;;11.43;64.34;101850.25;5049255;28;20106;-74
2023/04/20 09:56:39;;;;;;;10.10;4.07;;;;;;;11.60;63.03;101853.25;5038411;28;20080;-74
2023/04/20 09:59:06;;;;;;;7.15;3.65;;;;;;;11.73;61.61;101837.31;5047281;28;20053;-76
2023/04/20 10:01:35;;;;;;;5.83;3.73;;;;;;;11.73;61.07;101839.94;5045614;28;20076;-75
2023/04/20 10:04:02;;;;;;;;;;;;;;;11.87;60.00;101842.22;5041374;28;20052;-75
2023/04/20 10:06:32;;;;;;;5.50;3.13;;;;;;;11.94;58.88;101850.47;5047260;28;20063;-76
2023/04/20 10:09:05;;;;;;;4.70;3.22;;;;;;;12.01;59.61;101841.09;5020697;28;20061;-76
2023/04/20 10:11:36;;;;;;;6.00;3.58;;;;;;;12.05;59.54;101840.72;5020689;28;20083;-75
2023/04/20 10:14:26;;;;;;;5.80;3.25;;;;;;;12.13;59.02;101832.13;5032314;28;20097;-75
2023/04/20 10:17:04;;;;;;;4.07;2.97;;;;;;;12.25;59.29;101825.84;5036172;28;20063;-75
2023/04/20 10:19:41;;;;;;;6.78;3.05;;;;;;;12.31;58.35;101823.63;5048409;28;20049;-76
2023/04/20 10:22:09;;;;;;;6.78;3.03;;;;;;;12.50;57.91;101814.97;5041489;28;20135;-75
2023/04/20 10:24:39;;;;;;;5.03;2.95;;;;;;;12.66;57.66;101824.03;5042468;28;20037;-76
2023/04/20 10:27:16;;;;;;;5.22;3.35;;;;;;;12.90;57.75;101820.19;5024121;28;20060;-76
2023/04/20 10:29:45;;;;;;;5.85;3.40;;;;;;;13.21;56.92;101817.41;5044270;28;20076;-75
2023/04/20 10:32:25;;;;;;;6.10;3.40;;;;;;;13.36;56.37;101800.22;5041524;28;20057;-74
2023/04/20 10:35:07;;;;;;;8.25;3.90;;;;;;;13.64;54.84;101800.31;5046993;28;20076;-75
2023/04/20 10:37:35;;;;;;;5.45;3.60;;;;;;;13.67;54.32;101789.50;5042629;28;20041;-76
2023/04/20 10:40:03;;;;;;;5.15;3.40;;;;;;;14.16;54.09;101791.94;5034158;28;20516;-76
2023/04/20 10:42:43;;;;;;;7.60;3.65;;;;;;;14.52;53.17;101789.38;5029209;28;20060;-75
2023/04/20 10:45:11;;;;;;;7.43;3.17;;;;;;;14.64;53.07;101785.56;5048935;28;20089;-76
2023/04/20 10:47:39;;;;;;;6.15;3.05;;;;;;;14.53;52.21;101791.06;5046450;28;20053;-75
2023/04/20 10:50:07;;;;;;;6.43;3.95;;;;;;;14.48;52.44;101801.22;5018923;28;20053;-74
2023/04/20 10:52:35;;;;;;;6.80;3.70;;;;;;;14.48;52.30;101799.41;5039023;28;20118;-75
2023/04/20 10:55:02;;;;;;;4.55;3.47;;;;;;;14.65;53.02;101795.16;5052227;28;20044;-74
2023/04/20 10:57:29;;;;;;;4.80;3.38;;;;;;;14.59;53.05;101787.84;5038435;28;20144;-75
2023/04/20 10:59:56;;;;;;;5.90;3.53;;;;;;;14.58;52.07;101778.25;5039680;28;20056;-75
2023/04/20 11:02:23;;;;;;;4.07;3.10;;;;;;;14.48;52.41;101777.47;5037801;28;20156;-74
2023/04/20 11:04:50;;;;;;;7.65;3.85;;;;;;;14.47;51.79;101778.47;5042521;28;20543;-75
2023/04/20 11:07:17;;;;;;;7.70;4.03;;;;;;;14.27;51.86;101783.84;5018443;28;20520;-73
2023/04/20 11:09:44;;;;;;;4.07;3.30;;;;;;;14.26;52.30;101771.63;5044881;28;20056;-74
2023/04/20 11:12:14;;;;;;;4.82;3.25;;;;;;;13.99;51.80;101789.09;5034070;28;20053;-73
2023/04/20 11:14:52;;;;;;;4.53;3.33;;;;;;;13.87;52.71;101781.53;5036294;28;20620;-73
2023/04/20 11:17:20;;;;;;;5.55;2.80;;;;;;;13.71;53.53;101774.22;5031313;28;20053;-74
2023/04/20 11:19:46;;;;;;;5.35;3.55;;;;;;;13.64;53.47;101771.31;5038711;28;20532;-74
2023/04/20 11:22:21;;;;;;;4.78;3.13;;;;;;;13.63;53.35;101773.13;5045880;28;20056;-73
2023/04/20 11:24:49;;;;;;;5.57;3.45;;;;;;;13.58;53.65;101769.25;5048321;28;20052;-75
2023/04/20 11:27:23;;;;;;;4.70;3.63;;;;;;;13.64;53.49;101764.25;5049087;28;20596;-74
2023/04/20 11:29:57;;;;;;;5.72;3.40;;;;;;;13.63;53.31;101759.94;5048779;28;20109;-75
2023/04/20 11:32:23;;;;;;;5.70;3.58;;;;;;;13.72;53.30;101752.13;5038364;28;20088;-73